createdAt,value
2023-04-21T00:01:56.086Z,7.40
2023-04-21T00:04:25.607Z,7.40
2023-04-21T00:06:54.487Z,7.40
2023-04-21T00:09:22.325Z,7.30
2023-04-21T00:11:50.191Z,7.30
2023-04-21T00:14:17.977Z,7.30
2023-04-21T00:16:45.777Z,7.30
2023-04-21T00:19:14.132Z,7.20
2023-04-21T00:21:43.268Z,7.30
2023-04-21T00:24:11.061Z,7.20
2023-04-21T00:26:38.820Z,7.20
2023-04-21T00:29:06.594Z,7.20
2023-04-21T00:31:34.374Z,7.10
2023-04-21T00:34:02.172Z,7.10
2023-04-21T00:36:29.911Z,7.10
2023-04-21T00:38:58.988Z,7.00
2023-04-21T00:41:28.850Z,7.00
2023-04-21T00:44:04.482Z,6.90
2023-04-21T00:46:32.638Z,6.80
2023-04-21T00:49:01.056Z,6.80
2023-04-21T00:51:29.696Z,6.80
2023-04-21T00:53:59.051Z,6.80
2023-04-21T00:56:27.322Z,6.80
2023-04-21T00:58:55.796Z,6.80
2023-04-21T01:01:24.286Z,6.80
2023-04-21T01:03:52.931Z,6.80
2023-04-21T01:06:21.055Z,6.80
2023-04-21T01:08:49.783Z,6.80
2023-04-21T01:11:18.911Z,6.80
2023-04-21T01:13:47.730Z,6.80
2023-04-21T01:16:17.830Z,6.80
2023-04-21T01:18:46.042Z,6.80
2023-04-21T01:21:14.237Z,6.80
2023-04-21T01:23:43.808Z,6.80
2023-04-21T01:26:11.675Z,6.90
2023-04-21T01:28:39.458Z,6.90
2023-04-21T01:31:07.421Z,6.90
2023-04-21T01:33:35.314Z,6.90
2023-04-21T01:36:03.107Z,6.90
2023-04-21T01:38:30.894Z,6.90
2023-04-21T01:41:00.039Z,6.90
2023-04-21T01:43:27.789Z,6.90
2023-04-21T01:45:55.606Z,6.80
2023-04-21T01:48:23.420Z,6.80
2023-04-21T01:50:51.195Z,6.80
2023-04-21T01:53:18.953Z,6.70
2023-04-21T01:55:46.738Z,6.70
2023-04-21T01:58:15.877Z,6.70
2023-04-21T02:00:43.642Z,6.70
2023-04-21T02:03:11.587Z,6.70
2023-04-21T02:05:39.438Z,6.60
2023-04-21T02:08:07.412Z,6.60
2023-04-21T02:10:35.182Z,6.60
2023-04-21T02:13:03.141Z,6.60
2023-04-21T02:15:32.399Z,6.50
2023-04-21T02:18:00.308Z,6.50
2023-04-21T02:20:28.198Z,6.50
2023-04-21T02:22:55.961Z,6.40
2023-04-21T02:25:23.941Z,6.40
2023-04-21T02:27:51.751Z,6.30
2023-04-21T02:30:20.429Z,6.20
2023-04-21T02:32:49.653Z,6.10
2023-04-21T02:35:17.542Z,6.10
2023-04-21T02:37:45.310Z,6.00
2023-04-21T02:40:13.773Z,6.10
2023-04-21T02:42:41.537Z,6.10
2023-04-21T02:45:11.102Z,6.10
2023-04-21T02:47:38.909Z,6.00
2023-04-21T02:50:08.777Z,6.10
2023-04-21T02:52:37.963Z,6.20
2023-04-21T02:55:07.665Z,6.20
2023-04-21T02:57:35.463Z,6.20
2023-04-21T03:00:04.179Z,6.20
2023-04-21T03:02:32.055Z,6.20
2023-04-21T03:04:59.923Z,6.20
2023-04-21T03:07:29.269Z,6.20
2023-04-21T03:09:57.035Z,6.10
2023-04-21T03:12:24.781Z,6.00
2023-04-21T03:14:52.529Z,5.90
2023-04-21T03:17:20.413Z,5.90
2023-04-21T03:19:48.183Z,5.80
2023-04-21T03:22:15.936Z,5.80
2023-04-21T03:24:45.063Z,5.80
2023-04-21T03:27:12.853Z,5.80
2023-04-21T03:29:40.625Z,5.90
2023-04-21T03:32:08.375Z,5.90
2023-04-21T03:34:36.238Z,6.00
2023-04-21T03:37:04.008Z,6.00
2023-04-21T03:39:31.808Z,6.10
2023-04-21T03:42:01.287Z,6.10
2023-04-21T03:44:29.634Z,6.20
2023-04-21T03:46:57.563Z,6.20
2023-04-21T03:49:25.557Z,6.20
2023-04-21T03:51:53.321Z,6.30
2023-04-21T03:54:21.375Z,6.30
2023-04-21T03:56:49.100Z,6.30
2023-04-21T03:59:18.478Z,6.40
2023-04-21T04:01:46.445Z,6.40
2023-04-21T04:04:14.527Z,6.40
2023-04-21T04:06:42.448Z,6.40
2023-04-21T04:09:10.267Z,6.50
2023-04-21T04:11:38.016Z,6.50
2023-04-21T04:14:05.787Z,6.50
2023-04-21T04:16:36.798Z,6.50
2023-04-21T04:19:04.893Z,6.50
2023-04-21T04:21:33.265Z,6.40
2023-04-21T04:24:02.264Z,6.40
2023-04-21T04:26:30.197Z,6.40
2023-04-21T04:28:57.972Z,6.40
2023-04-21T04:31:26.184Z,6.40
2023-04-21T04:33:55.766Z,6.50
2023-04-21T04:36:23.749Z,6.50
2023-04-21T04:38:51.562Z,6.60
2023-04-21T04:41:20.810Z,6.60
2023-04-21T04:43:48.614Z,6.70
2023-04-21T04:46:17.205Z,6.70
2023-04-21T04:48:45.104Z,6.60
2023-04-21T04:51:14.186Z,6.60
2023-04-21T04:53:41.917Z,6.50
2023-04-21T04:56:09.674Z,6.40
2023-04-21T04:58:37.415Z,6.20
2023-04-21T05:01:13.594Z,6.10
2023-04-21T05:03:41.457Z,6.00
2023-04-21T05:06:09.764Z,5.90
2023-04-21T05:08:40.094Z,5.90
2023-04-21T05:11:08.394Z,5.90
2023-04-21T05:13:38.390Z,5.90
2023-04-21T05:16:10.009Z,5.90
2023-04-21T05:18:37.985Z,5.90
2023-04-21T05:21:06.026Z,6.00
2023-04-21T05:23:34.012Z,6.10
2023-04-21T05:26:04.665Z,6.30
2023-04-21T05:28:33.003Z,6.40
2023-04-21T05:31:00.778Z,6.50
2023-04-21T05:33:31.544Z,6.60
2023-04-21T05:35:59.315Z,6.80
2023-04-21T05:38:27.237Z,6.90
2023-04-21T05:40:55.861Z,7.10
2023-04-21T05:43:24.998Z,7.30
2023-04-21T05:45:52.986Z,7.50
2023-04-21T05:48:20.906Z,7.70
2023-04-21T05:50:48.709Z,7.90
2023-04-21T05:53:16.468Z,8.10
2023-04-21T05:55:44.215Z,8.30
2023-04-21T05:58:11.994Z,8.40
2023-04-21T06:00:41.084Z,8.60
2023-04-21T06:03:09.047Z,8.70
2023-04-21T06:05:37.020Z,8.90
2023-04-21T06:08:04.932Z,9.10
2023-04-21T06:10:32.758Z,9.20
2023-04-21T06:13:00.478Z,9.40
2023-04-21T06:15:28.209Z,9.40
2023-04-21T06:17:57.455Z,9.50
2023-04-21T06:20:25.335Z,9.40
2023-04-21T06:22:53.110Z,9.50
2023-04-21T06:25:21.143Z,9.70
2023-04-21T06:27:48.903Z,9.90
2023-04-21T06:30:17.540Z,10.10
2023-04-21T06:32:45.990Z,10.30
2023-04-21T06:35:17.200Z,10.50
2023-04-21T06:37:44.978Z,10.70
2023-04-21T06:40:15.857Z,10.80
2023-04-21T06:42:43.721Z,10.80
2023-04-21T06:45:12.266Z,10.80
2023-04-21T06:47:40.133Z,10.90
2023-04-21T06:50:09.016Z,11.00
2023-04-21T06:52:38.087Z,11.20
2023-04-21T06:55:07.010Z,11.40
2023-04-21T06:57:34.816Z,11.60
2023-04-21T07:00:02.692Z,11.70
2023-04-21T07:02:30.495Z,11.70
2023-04-21T07:04:58.283Z,11.80
2023-04-21T07:07:26.060Z,11.90
2023-04-21T07:09:55.341Z,12.00
2023-04-21T07:12:23.138Z,12.10
2023-04-21T07:14:50.902Z,12.20
2023-04-21T07:17:18.684Z,12.20
2023-04-21T07:19:46.774Z,12.10
2023-04-21T07:22:14.562Z,12.10
2023-04-21T07:24:42.307Z,12.10
2023-04-21T07:27:11.407Z,12.20
2023-04-21T07:29:39.170Z,12.30
2023-04-21T07:32:07.028Z,12.40
2023-04-21T07:34:34.805Z,12.40
2023-04-21T07:37:02.596Z,12.50
2023-04-21T07:39:30.378Z,12.60
2023-04-21T07:41:58.091Z,12.80
2023-04-21T07:44:29.198Z,12.90
2023-04-21T07:46:56.989Z,13.10
2023-04-21T07:49:24.701Z,13.10
2023-04-21T07:51:52.479Z,13.30
2023-04-21T07:54:20.219Z,13.40
2023-04-21T07:56:47.974Z,13.40
2023-04-21T07:59:15.775Z,13.50
2023-04-21T08:01:44.824Z,13.70
2023-04-21T08:04:12.671Z,13.70
2023-04-21T08:06:40.500Z,13.90
2023-04-21T08:09:08.590Z,14.00
2023-04-21T08:11:36.370Z,14.20
2023-04-21T08:14:04.523Z,14.30
2023-04-21T08:16:32.361Z,14.40
2023-04-21T08:19:01.552Z,14.50
2023-04-21T08:21:31.305Z,14.50
2023-04-21T08:23:59.297Z,14.50
2023-04-21T08:26:27.781Z,14.70
2023-04-21T08:28:55.530Z,14.80
2023-04-21T08:31:26.996Z,14.90
2023-04-21T08:34:01.746Z,14.90
2023-04-21T08:36:32.560Z,15.00
2023-04-21T08:39:00.504Z,15.00
2023-04-21T08:41:28.738Z,15.10
2023-04-21T08:43:56.541Z,15.30
2023-04-21T08:46:24.834Z,15.30
2023-04-21T08:48:54.960Z,15.50
2023-04-21T08:51:24.667Z,15.50
2023-04-21T08:53:55.796Z,15.60
2023-04-21T08:56:25.884Z,15.80
2023-04-21T08:58:53.773Z,16.00
2023-04-21T09:01:21.655Z,16.20
2023-04-21T09:03:49.633Z,16.30
2023-04-21T09:06:18.057Z,16.40
2023-04-21T09:08:56.466Z,16.40
2023-04-21T09:11:25.053Z,16.50
2023-04-21T09:13:52.821Z,16.70
2023-04-21T09:16:22.748Z,16.80
2023-04-21T09:18:51.377Z,16.90
2023-04-21T09:21:20.600Z,17.00
2023-04-21T09:23:49.587Z,17.00
2023-04-21T09:26:20.139Z,17.10
2023-04-21T09:28:49.469Z,17.20
2023-04-21T09:31:19.719Z,17.10
2023-04-21T09:36:24.332Z,17.10
2023-04-21T09:39:20.540Z,17.20
2023-04-21T09:41:47.114Z,17.30
2023-04-21T09:44:14.962Z,17.50
2023-04-21T09:46:45.304Z,17.60
2023-04-21T09:49:17.231Z,17.60
2023-04-21T09:52:09.681Z,17.70
2023-04-21T09:54:34.926Z,17.90
2023-04-21T09:57:05.799Z,18.10
2023-04-21T09:59:37.134Z,18.10
2023-04-21T10:02:07.713Z,18.10
2023-04-21T10:04:38.176Z,18.00
2023-04-21T10:07:07.428Z,18.00
2023-04-21T10:09:41.155Z,17.90
2023-04-21T10:12:11.246Z,18.00
2023-04-21T10:14:39.032Z,18.30
2023-04-21T10:17:08.607Z,18.60
2023-04-21T10:19:39.811Z,18.80
2023-04-21T10:22:09.389Z,18.80
2023-04-21T10:24:39.741Z,19.00
2023-04-21T10:27:12.648Z,19.00
2023-04-21T10:29:55.505Z,19.20
2023-04-21T10:32:42.160Z,19.40
2023-04-21T10:35:11.582Z,19.30
2023-04-21T10:37:41.125Z,19.30
2023-04-21T10:43:45.327Z,19.10
2023-04-21T10:46:36.489Z,19.30
2023-04-21T10:49:08.990Z,19.30
2023-04-21T10:52:04.966Z,19.50
2023-04-21T10:54:41.819Z,19.60
2023-04-21T10:57:11.988Z,19.60
2023-04-21T10:59:41.708Z,19.70
2023-04-21T11:02:12.464Z,19.80
2023-04-21T11:04:45.095Z,19.90
2023-04-21T11:07:14.933Z,20.00
2023-04-21T11:09:43.858Z,20.10
2023-04-21T11:12:12.901Z,20.00
2023-04-21T11:14:43.905Z,19.80
2023-04-21T11:17:14.133Z,19.70
2023-04-21T11:19:42.441Z,19.70
2023-04-21T11:22:10.229Z,19.80
2023-04-21T11:24:37.999Z,19.80
2023-04-21T11:27:09.784Z,19.80
2023-04-21T11:29:37.543Z,19.90
2023-04-21T11:32:09.183Z,20.00
2023-04-21T11:34:38.914Z,20.00
2023-04-21T11:37:08.290Z,20.10
2023-04-21T11:39:36.055Z,20.00
2023-04-21T11:42:04.241Z,20.00
2023-04-21T11:44:33.961Z,20.00
2023-04-21T11:47:01.943Z,20.20
2023-04-21T11:49:32.218Z,20.10
2023-04-21T11:52:00.164Z,20.20
2023-04-21T11:54:30.675Z,20.20
2023-04-21T11:57:00.115Z,20.20
2023-04-21T11:59:29.834Z,20.20
2023-04-21T12:01:57.647Z,20.20
2023-04-21T12:04:27.240Z,20.20
2023-04-21T12:06:59.355Z,20.40
2023-04-21T12:09:27.961Z,20.40
2023-04-21T12:11:58.538Z,20.60
2023-04-21T12:14:27.393Z,20.70
2023-04-21T12:16:56.390Z,20.70
2023-04-21T12:19:26.299Z,20.80
2023-04-21T12:21:55.472Z,20.70
2023-04-21T12:24:24.716Z,20.50
2023-04-21T12:26:52.487Z,20.50
2023-04-21T12:29:20.229Z,20.60
2023-04-21T12:31:48.004Z,20.70
2023-04-21T12:34:16.025Z,20.70
2023-04-21T12:36:44.126Z,20.70
2023-04-21T12:39:13.279Z,20.80
2023-04-21T12:41:42.413Z,20.70
2023-04-21T12:44:10.149Z,20.70
2023-04-21T12:46:37.921Z,20.60
2023-04-21T12:49:07.390Z,20.70
2023-04-21T12:51:35.362Z,20.80
2023-04-21T12:54:03.335Z,20.90
2023-04-21T12:56:31.336Z,21.00
2023-04-21T12:59:00.461Z,21.10
2023-04-21T13:01:28.306Z,21.20
2023-04-21T13:03:56.546Z,21.10
2023-04-21T13:06:24.466Z,21.10
2023-04-21T13:08:52.201Z,21.00
2023-04-21T13:11:20.002Z,21.10
2023-04-21T13:13:47.758Z,21.10
2023-04-21T13:16:17.118Z,21.10
2023-04-21T13:18:46.790Z,21.20
2023-04-21T13:21:14.774Z,21.20
2023-04-21T13:23:42.517Z,21.20
2023-04-21T13:26:10.335Z,21.20
2023-04-21T13:28:38.781Z,21.10
2023-04-21T13:31:06.963Z,21.20
2023-04-21T13:33:36.359Z,21.30
2023-04-21T13:36:04.641Z,21.40
2023-04-21T13:38:33.223Z,21.40
2023-04-21T13:41:01.025Z,21.40
2023-04-21T13:43:28.788Z,21.40
2023-04-21T13:45:56.569Z,21.40
2023-04-21T13:48:24.508Z,21.40
2023-04-21T13:50:53.806Z,21.10
2023-04-21T13:53:21.756Z,20.80
2023-04-21T13:55:49.606Z,20.80
2023-04-21T13:58:17.784Z,20.90
2023-04-21T14:00:45.571Z,20.80
2023-04-21T14:03:14.014Z,21.00
2023-04-21T14:05:42.268Z,21.00
2023-04-21T14:08:11.829Z,21.00
2023-04-21T14:10:39.625Z,20.90
2023-04-21T14:13:07.426Z,20.90
2023-04-21T14:15:35.210Z,20.70
2023-04-21T14:18:03.058Z,20.30
2023-04-21T14:20:30.910Z,20.10
2023-04-21T14:22:58.702Z,20.30
2023-04-21T14:25:27.995Z,20.30
2023-04-21T14:27:55.872Z,20.40
2023-04-21T14:30:23.694Z,20.40
2023-04-21T14:32:51.464Z,20.10
2023-04-21T14:35:19.260Z,19.80
2023-04-21T14:37:47.066Z,19.70
2023-04-21T14:40:15.017Z,19.60
2023-04-21T14:42:44.136Z,19.40
2023-04-21T14:45:12.639Z,19.20
2023-04-21T14:47:40.484Z,19.20
2023-04-21T14:50:09.402Z,19.30
2023-04-21T14:52:37.245Z,19.60
2023-04-21T14:55:05.506Z,19.80
2023-04-21T14:57:33.253Z,19.90
2023-04-21T15:00:02.424Z,19.90
2023-04-21T15:02:31.293Z,19.80
2023-04-21T15:04:59.154Z,19.60
2023-04-21T15:07:27.080Z,19.40
2023-04-21T15:09:55.304Z,19.20
2023-04-21T15:12:23.251Z,19.10
2023-04-21T15:14:51.256Z,19.30
2023-04-21T15:17:20.560Z,19.40
2023-04-21T15:19:48.424Z,19.40
2023-04-21T15:22:16.268Z,19.40
2023-04-21T15:24:44.163Z,19.30
2023-04-21T15:27:11.957Z,19.20
2023-04-21T15:29:39.756Z,19.20
2023-04-21T15:32:07.762Z,19.20
2023-04-21T15:34:37.145Z,19.30
2023-04-21T15:37:04.996Z,19.30
2023-04-21T15:39:32.765Z,19.30
2023-04-21T15:42:01.474Z,19.30
2023-04-21T15:44:29.284Z,19.30
2023-04-21T15:46:57.113Z,19.30
2023-04-21T15:49:33.580Z,19.40
2023-04-21T15:52:03.775Z,19.60
2023-04-21T15:54:33.958Z,19.70
2023-04-21T15:57:02.368Z,19.60
2023-04-21T15:59:30.816Z,19.70
2023-04-21T16:01:58.968Z,19.60
2023-04-21T16:04:27.038Z,19.70
2023-04-21T16:06:55.612Z,19.70
2023-04-21T16:09:24.698Z,19.70
2023-04-21T16:11:52.710Z,19.60
2023-04-21T16:14:20.620Z,19.50
2023-04-21T16:16:48.455Z,19.40
2023-04-21T16:19:16.479Z,19.20
2023-04-21T16:21:44.504Z,18.90
2023-04-21T16:24:12.449Z,18.70
2023-04-21T16:26:41.676Z,18.60
2023-04-21T16:29:09.560Z,18.60
2023-04-21T16:31:37.446Z,18.50
2023-04-21T16:34:05.636Z,18.50
2023-04-21T16:36:34.162Z,18.60
2023-04-21T16:39:01.967Z,18.60
2023-04-21T16:41:30.279Z,18.60
2023-04-21T16:43:59.453Z,18.50
2023-04-21T16:46:27.278Z,18.60
2023-04-21T16:48:55.259Z,18.60
2023-04-21T16:51:23.072Z,18.50
2023-04-21T16:53:50.812Z,18.40
2023-04-21T16:56:20.181Z,18.30
2023-04-21T16:58:47.985Z,18.30
2023-04-21T17:01:17.154Z,18.30
2023-04-21T17:03:45.796Z,18.20
2023-04-21T17:06:17.204Z,18.20
2023-04-21T17:08:44.990Z,18.10
2023-04-21T17:11:12.747Z,17.90
2023-04-21T17:13:40.471Z,17.70
2023-04-21T17:16:08.428Z,17.70
2023-04-21T17:18:37.931Z,17.70
2023-04-21T17:21:06.687Z,17.80
2023-04-21T17:23:34.436Z,17.80
2023-04-21T17:26:03.548Z,17.70
2023-04-21T17:28:31.992Z,17.60
2023-04-21T17:31:13.887Z,17.50
2023-04-21T17:33:45.062Z,17.40
2023-04-21T17:38:58.178Z,17.10
2023-04-21T17:41:26.625Z,16.80
2023-04-21T17:43:54.738Z,16.70
2023-04-21T17:46:24.876Z,16.60
2023-04-21T17:48:53.246Z,16.50
2023-04-21T17:51:21.084Z,16.40
2023-04-21T17:53:48.819Z,16.30
2023-04-21T17:56:18.768Z,16.30
2023-04-21T17:58:46.777Z,16.30
2023-04-21T18:01:14.592Z,16.30
2023-04-21T18:03:42.831Z,16.30
2023-04-21T18:06:11.609Z,16.30
2023-04-21T18:08:39.590Z,16.30
2023-04-21T18:11:07.407Z,16.20
2023-04-21T18:13:36.532Z,16.20
2023-04-21T18:16:04.271Z,16.20
2023-04-21T18:18:32.066Z,16.20
2023-04-21T18:21:00.106Z,16.20
2023-04-21T18:23:27.934Z,16.10
2023-04-21T18:25:55.953Z,16.10
2023-04-21T18:28:23.738Z,16.00
2023-04-21T18:30:53.474Z,16.00
2023-04-21T18:33:21.324Z,16.00
2023-04-21T18:35:49.156Z,15.90
2023-04-21T18:38:16.916Z,15.90
2023-04-21T18:40:44.767Z,15.80
2023-04-21T18:43:12.593Z,15.80
2023-04-21T18:45:40.431Z,15.80
2023-04-21T18:48:09.557Z,15.70
2023-04-21T18:50:39.521Z,15.60
2023-04-21T18:53:08.187Z,15.40
2023-04-21T18:55:37.236Z,15.30
2023-04-21T18:58:05.139Z,15.10
2023-04-21T19:00:37.010Z,14.90
2023-04-21T19:03:05.885Z,14.70
2023-04-21T19:05:36.552Z,14.50
2023-04-21T19:08:04.347Z,14.30
2023-04-21T19:10:34.265Z,14.30
2023-04-21T19:13:02.151Z,14.30
2023-04-21T19:15:30.018Z,14.30
2023-04-21T19:17:57.941Z,14.30
2023-04-21T19:20:25.764Z,14.40
2023-04-21T19:22:54.850Z,14.40
2023-04-21T19:25:22.634Z,14.40
2023-04-21T19:27:51.386Z,14.40
2023-04-21T19:30:19.243Z,14.30
2023-04-21T19:32:47.028Z,14.30
2023-04-21T19:35:14.929Z,14.20
2023-04-21T19:37:42.811Z,14.20
2023-04-21T19:40:12.635Z,14.00
2023-04-21T19:42:41.958Z,14.00
2023-04-21T19:45:10.925Z,13.90
2023-04-21T19:47:38.722Z,13.90
2023-04-21T19:50:08.117Z,13.80
2023-04-21T19:52:35.933Z,13.80
2023-04-21T19:55:04.473Z,13.70
2023-04-21T19:57:33.580Z,13.60
2023-04-21T20:00:01.343Z,13.60
2023-04-21T20:02:29.360Z,13.50
2023-04-21T20:04:57.267Z,13.40
2023-04-21T20:07:25.329Z,13.20
2023-04-21T20:09:53.124Z,13.20
2023-04-21T20:12:20.979Z,13.10
2023-04-21T20:14:51.733Z,13.10
2023-04-21T20:17:19.649Z,13.10
2023-04-21T20:19:48.868Z,13.00
2023-04-21T20:22:16.627Z,13.00
2023-04-21T20:24:44.377Z,13.00
2023-04-21T20:27:12.110Z,13.00
2023-04-21T20:29:40.160Z,13.00
2023-04-21T20:32:10.295Z,13.00
2023-04-21T20:34:38.056Z,13.00
2023-04-21T20:37:06.163Z,13.00
2023-04-21T20:39:34.117Z,13.00
2023-04-21T20:42:12.709Z,12.90
2023-04-21T20:44:42.233Z,12.90
2023-04-21T20:47:12.156Z,12.80
2023-04-21T20:49:40.611Z,12.70
2023-04-21T20:52:08.610Z,12.60
2023-04-21T20:54:36.616Z,12.60
2023-04-21T20:57:07.169Z,12.50
2023-04-21T20:59:35.198Z,12.40
2023-04-21T21:02:03.175Z,12.30
2023-04-21T21:04:32.637Z,12.30
2023-04-21T21:07:01.120Z,12.30
2023-04-21T21:09:28.997Z,12.30
2023-04-21T21:11:56.749Z,12.40
2023-04-21T21:14:24.501Z,12.40
2023-04-21T21:16:54.289Z,12.50
2023-04-21T21:19:23.360Z,12.60
2023-04-21T21:21:52.429Z,12.50
2023-04-21T21:24:20.175Z,12.50
2023-04-21T21:26:47.926Z,12.40
2023-04-21T21:29:15.705Z,12.30
2023-04-21T21:31:43.527Z,12.20
2023-04-21T21:34:11.313Z,12.20
2023-04-21T21:36:39.130Z,12.20
2023-04-21T21:39:10.993Z,12.20
2023-04-21T21:41:39.588Z,12.10
2023-04-21T21:44:07.624Z,12.10
2023-04-21T21:46:35.568Z,12.00
2023-04-21T21:49:03.647Z,12.00
2023-04-21T21:51:31.424Z,11.90
2023-04-21T21:53:59.215Z,11.80
2023-04-21T21:56:28.428Z,11.70
2023-04-21T21:58:56.254Z,11.60
2023-04-21T22:01:24.342Z,11.60
2023-04-21T22:03:53.718Z,11.50
2023-04-21T22:06:24.223Z,11.40
2023-04-21T22:08:52.196Z,11.30
2023-04-21T22:11:20.564Z,11.20
2023-04-21T22:13:49.726Z,11.10
2023-04-21T22:16:18.380Z,11.20
2023-04-21T22:18:48.097Z,11.20
2023-04-21T22:21:15.961Z,11.20
2023-04-21T22:23:43.784Z,11.30
2023-04-21T22:26:11.532Z,11.40
2023-04-21T22:28:41.534Z,11.40
2023-04-21T22:31:11.420Z,11.30
2023-04-21T22:33:39.231Z,11.30
2023-04-21T22:36:09.725Z,11.10
2023-04-21T22:38:38.218Z,11.00
2023-04-21T22:41:06.383Z,10.90
2023-04-21T22:43:34.177Z,10.80
2023-04-21T22:46:02.349Z,10.70
2023-04-21T22:48:32.595Z,10.60
2023-04-21T22:51:01.439Z,10.60
2023-04-21T22:53:29.356Z,10.60
2023-04-21T22:55:57.215Z,10.60
2023-04-21T22:58:26.083Z,10.60
2023-04-21T23:00:53.985Z,10.60
2023-04-21T23:03:22.999Z,10.50
2023-04-21T23:05:52.485Z,10.50
2023-04-21T23:08:20.262Z,10.50
2023-04-21T23:10:48.675Z,10.50
2023-04-21T23:13:16.473Z,10.50
2023-04-21T23:15:44.237Z,10.60
2023-04-21T23:18:12.004Z,10.60
2023-04-21T23:20:39.753Z,10.70
2023-04-21T23:23:08.913Z,10.70
2023-04-21T23:25:36.959Z,10.60
2023-04-21T23:28:04.733Z,10.60
2023-04-21T23:30:32.491Z,10.50
2023-04-21T23:33:00.720Z,10.40
2023-04-21T23:35:28.763Z,10.40
2023-04-21T23:37:56.562Z,10.20
2023-04-21T23:40:25.733Z,10.10
2023-04-21T23:42:53.493Z,10.10
2023-04-21T23:45:21.389Z,10.00
2023-04-21T23:47:49.227Z,10.10
2023-04-21T23:50:17.072Z,10.00
2023-04-21T23:52:44.947Z,9.90
2023-04-21T23:55:12.894Z,9.90
2023-04-21T23:57:44.438Z,9.80
